sensor_id;sensor_type;location;lat;lon;timestamp;pressure;altitude;pressure_sealevel;temperature;humidity
71768;BME280;59604;52.138;5.446;2022-12-24T00:00:58;100680.22;;;9.23;100.00
71768;BME280;59604;52.138;5.446;2022-12-24T00:03:25;100680.22;;;9.23;100.00
71768;BME280;59604;52.138;5.446;2022-12-24T00:05:52;100689.94;;;9.23;100.00
71768;BME280;59604;52.138;5.446;2022-12-24T00:08:19;100701.47;;;9.22;100.00
71768;BME280;59604;52.138;5.446;2022-12-24T00:10:52;100692.56;;;9.23;100.00
71768;BME280;59604;52.138;5.446;2022-12-24T00:13:19;100707.72;;;9.21;100.00
71768;BME280;59604;52.138;5.446;2022-12-24T00:15:47;100695.19;;;9.23;100.00
71768;BME280;59604;52.138;5.446;2022-12-24T00:18:14;100703.06;;;9.23;100.00
71768;BME280;59604;52.138;5.446;2022-12-24T00:20:41;100708.34;;;9.23;100.00
71768;BME280;59604;52.138;5.446;2022-12-24T00:23:08;100718.66;;;9.24;100.00
71768;BME280;59604;52.138;5.446;2022-12-24T00:25:35;100718.66;;;9.24;100.00
71768;BME280;59604;52.138;5.446;2022-12-24T00:28:02;100719.66;;;9.23;100.00
71768;BME280;59604;52.138;5.446;2022-12-24T00:30:28;100720.66;;;9.22;100.00
71768;BME280;59604;52.138;5.446;2022-12-24T00:32:55;100716.41;;;9.21;100.00
71768;BME280;59604;52.138;5.446;2022-12-24T00:35:22;100725.28;;;9.20;100.00
71768;BME280;59604;52.138;5.446;2022-12-24T00:37:49;100735.16;;;9.18;100.00
71768;BME280;59604;52.138;5.446;2022-12-24T00:40:17;100748.31;;;9.18;100.00
71768;BME280;59604;52.138;5.446;2022-12-24T00:42:44;100745.47;;;9.19;100.00
71768;BME280;59604;52.138;5.446;2022-12-24T00:45:11;100742.03;;;9.19;100.00
71768;BME280;59604;52.138;5.446;2022-12-24T00:47:37;100748.47;;;9.16;100.00
71768;BME280;59604;52.138;5.446;2022-12-24T00:50:04;100755.53;;;9.16;100.00
71768;BME280;59604;52.138;5.446;2022-12-24T00:52:31;100754.72;;;9.15;100.00
71768;BME280;59604;52.138;5.446;2022-12-24T00:54:58;100756.53;;;9.15;100.00
71768;BME280;59604;52.138;5.446;2022-12-24T00:57:24;100760.97;;;9.14;100.00
71768;BME280;59604;52.138;5.446;2022-12-24T00:59:51;100765.78;;;9.11;100.00
71768;BME280;59604;52.138;5.446;2022-12-24T01:02:18;100770.03;;;9.12;100.00
71768;BME280;59604;52.138;5.446;2022-12-24T01:04:45;100777.91;;;9.12;100.00
71768;BME280;59604;52.138;5.446;2022-12-24T01:07:30;100783.19;;;9.12;100.00
71768;BME280;59604;52.138;5.446;2022-12-24T01:09:56;100791.41;;;9.09;100.00
71768;BME280;59604;52.138;5.446;2022-12-24T01:12:23;100799.47;;;9.07;100.00
71768;BME280;59604;52.138;5.446;2022-12-24T01:14:50;100805.75;;;9.06;100.00
71768;BME280;59604;52.138;5.446;2022-12-24T01:17:17;100803.63;;;9.02;100.00
71768;BME280;59604;52.138;5.446;2022-12-24T01:19:43;100815.31;;;8.99;100.00
71768;BME280;59604;52.138;5.446;2022-12-24T01:22:10;100824.38;;;8.97;100.00
71768;BME280;59604;52.138;5.446;2022-12-24T01:24:37;100822.91;;;8.94;100.00
71768;BME280;59604;52.138;5.446;2022-12-24T01:27:03;100820.81;;;8.89;100.00
71768;BME280;59604;52.138;5.446;2022-12-24T01:29:30;100828.44;;;8.84;100.00
71768;BME280;59604;52.138;5.446;2022-12-24T01:31:56;100827.16;;;8.80;100.00
71768;BME280;59604;52.138;5.446;2022-12-24T01:34:23;100830.13;;;8.77;100.00
71768;BME280;59604;52.138;5.446;2022-12-24T01:36:49;100841.78;;;8.75;100.00
71768;BME280;59604;52.138;5.446;2022-12-24T01:39:16;100842.94;;;8.72;100.00
71768;BME280;59604;52.138;5.446;2022-12-24T01:41:42;100843.47;;;8.67;100.00
71768;BME280;59604;52.138;5.446;2022-12-24T01:44:31;100839.91;;;8.60;100.00
71768;BME280;59604;52.138;5.446;2022-12-24T01:47:08;100844.56;;;8.50;100.00
71768;BME280;59604;52.138;5.446;2022-12-24T01:49:38;100843.63;;;8.43;100.00
71768;BME280;59604;52.138;5.446;2022-12-24T01:52:25;100851.53;;;8.35;100.00
71768;BME280;59604;52.138;5.446;2022-12-24T01:55:04;100858.44;;;8.28;100.00
71768;BME280;59604;52.138;5.446;2022-12-24T01:57:42;100857.16;;;8.23;100.00
71768;BME280;59604;52.138;5.446;2022-12-24T02:00:14;100861.94;;;8.20;100.00
71768;BME280;59604;52.138;5.446;2022-12-24T02:02:45;100871.78;;;8.18;100.00
71768;BME280;59604;52.138;5.446;2022-12-24T02:05:31;100870.97;;;8.17;100.00
71768;BME280;59604;52.138;5.446;2022-12-24T02:08:03;100868.84;;;8.13;100.00
71768;BME280;59604;52.138;5.446;2022-12-24T02:10:30;100876.41;;;8.08;100.00
71768;BME280;59604;52.138;5.446;2022-12-24T02:12:57;100869.06;;;8.03;100.00
71768;BME280;59604;52.138;5.446;2022-12-24T02:15:27;100882.66;;;7.98;100.00
71768;BME280;59604;52.138;5.446;2022-12-24T02:18:08;100887.63;;;7.93;100.00
71768;BME280;59604;52.138;5.446;2022-12-24T02:30:07;100902.09;;;7.73;100.00
71768;BME280;59604;52.138;5.446;2022-12-24T02:37:45;100904.25;;;7.61;100.00
71768;BME280;59604;52.138;5.446;2022-12-24T02:40:25;100909.66;;;7.60;100.00
71768;BME280;59604;52.138;5.446;2022-12-24T02:42:57;100903.94;;;7.56;100.00
71768;BME280;59604;52.138;5.446;2022-12-24T02:45:29;100917.03;;;7.56;100.00
71768;BME280;59604;52.138;5.446;2022-12-24T02:47:56;100912.94;;;7.54;100.00
71768;BME280;59604;52.138;5.446;2022-12-24T02:50:23;100916.56;;;7.53;100.00
71768;BME280;59604;52.138;5.446;2022-12-24T02:52:50;100908.03;;;7.50;100.00
71768;BME280;59604;52.138;5.446;2022-12-24T02:55:24;100913.44;;;7.49;100.00
71768;BME280;59604;52.138;5.446;2022-12-24T03:01:19;100921.97;;;7.43;100.00
71768;BME280;59604;52.138;5.446;2022-12-24T03:06:33;100935.75;;;7.37;100.00
71768;BME280;59604;52.138;5.446;2022-12-24T03:09:08;100939.19;;;7.37;100.00
71768;BME280;59604;52.138;5.446;2022-12-24T03:11:43;100937.03;;;7.33;100.00
71768;BME280;59604;52.138;5.446;2022-12-24T03:14:14;100934.56;;;7.31;100.00
71768;BME280;59604;52.138;5.446;2022-12-24T03:16:42;100936.72;;;7.28;100.00
71768;BME280;59604;52.138;5.446;2022-12-24T03:19:10;100927.03;;;7.28;100.00
71768;BME280;59604;52.138;5.446;2022-12-24T03:21:38;100933.75;;;7.31;100.00
71768;BME280;59604;52.138;5.446;2022-12-24T03:24:08;100925.91;;;7.31;100.00
71768;BME280;59604;52.138;5.446;2022-12-24T03:26:36;100932.44;;;7.35;100.00
71768;BME280;59604;52.138;5.446;2022-12-24T03:29:06;100937.50;;;7.36;100.00
71768;BME280;59604;52.138;5.446;2022-12-24T03:31:48;100946.03;;;7.38;100.00
71768;BME280;59604;52.138;5.446;2022-12-24T03:34:16;100952.28;;;7.37;100.00
71768;BME280;59604;52.138;5.446;2022-12-24T03:36:43;100952.28;;;7.37;100.00
71768;BME280;59604;52.138;5.446;2022-12-24T03:39:10;100943.75;;;7.35;100.00
71768;BME280;59604;52.138;5.446;2022-12-24T03:41:36;100947.03;;;7.37;100.00
71768;BME280;59604;52.138;5.446;2022-12-24T03:44:03;100946.03;;;7.38;100.00
71768;BME280;59604;52.138;5.446;2022-12-24T03:46:30;100948.66;;;7.38;100.00
71768;BME280;59604;52.138;5.446;2022-12-24T03:48:57;100947.66;;;7.39;100.00
71768;BME280;59604;52.138;5.446;2022-12-24T03:51:24;100953.72;;;7.40;100.00
71768;BME280;59604;52.138;5.446;2022-12-24T03:53:52;100951.09;;;7.40;100.00
71768;BME280;59604;52.138;5.446;2022-12-24T03:56:18;100952.78;;;7.41;100.00
71768;BME280;59604;52.138;5.446;2022-12-24T03:58:46;100955.06;;;7.44;100.00
71768;BME280;59604;52.138;5.446;2022-12-24T04:01:13;100962.09;;;7.52;100.00
71768;BME280;59604;52.138;5.446;2022-12-24T04:03:40;100963.22;;;7.57;100.00
71768;BME280;59604;52.138;5.446;2022-12-24T04:06:12;100957.97;;;7.65;100.00
71768;BME280;59604;52.138;5.446;2022-12-24T04:08:39;100965.38;;;7.70;100.00
71768;BME280;59604;52.138;5.446;2022-12-24T04:11:08;100971.09;;;7.73;100.00
71768;BME280;59604;52.138;5.446;2022-12-24T04:13:35;100974.22;;;7.77;100.00
71768;BME280;59604;52.138;5.446;2022-12-24T04:16:08;100969.47;;;7.81;100.00
71768;BME280;59604;52.138;5.446;2022-12-24T04:18:35;100968.47;;;7.82;100.00
71768;BME280;59604;52.138;5.446;2022-12-24T04:21:03;100965.50;;;7.85;100.00
71768;BME280;59604;52.138;5.446;2022-12-24T04:23:31;100968.75;;;7.87;100.00
71768;BME280;59604;52.138;5.446;2022-12-24T04:25:59;100963.38;;;7.88;100.00
71768;BME280;59604;52.138;5.446;2022-12-24T04:28:25;100976.31;;;7.90;100.00
71768;BME280;59604;52.138;5.446;2022-12-24T04:30:59;100981.22;;;7.93;100.00
71768;BME280;59604;52.138;5.446;2022-12-24T04:33:26;100976.78;;;7.93;100.00
71768;BME280;59604;52.138;5.446;2022-12-24T04:35:53;100976.78;;;7.93;100.00
71768;BME280;59604;52.138;5.446;2022-12-24T04:38:19;100981.72;;;7.96;100.00
71768;BME280;59604;52.138;5.446;2022-12-24T04:40:46;100983.34;;;7.97;100.00
71768;BME280;59604;52.138;5.446;2022-12-24T04:43:13;100994.31;;;8.01;100.00
71768;BME280;59604;52.138;5.446;2022-12-24T04:45:40;100986.25;;;8.03;100.00
71768;BME280;59604;52.138;5.446;2022-12-24T04:48:06;100995.78;;;8.04;100.00
71768;BME280;59604;52.138;5.446;2022-12-24T04:50:33;100986.25;;;8.03;100.00
71768;BME280;59604;52.138;5.446;2022-12-24T04:52:59;100982.69;;;8.04;100.00
71768;BME280;59604;52.138;5.446;2022-12-24T04:55:26;100983.50;;;8.04;100.00
71768;BME280;59604;52.138;5.446;2022-12-24T04:57:52;100983.81;;;8.01;100.00
71768;BME280;59604;52.138;5.446;2022-12-24T05:00:19;100995.94;;;8.02;100.00
71768;BME280;59604;52.138;5.446;2022-12-24T05:02:46;100996.63;;;8.04;100.00
71768;BME280;59604;52.138;5.446;2022-12-24T05:05:12;100994.97;;;8.03;100.00
71768;BME280;59604;52.138;5.446;2022-12-24T05:07:39;101004.16;;;8.07;100.00
71768;BME280;59604;52.138;5.446;2022-12-24T05:10:06;101002.00;;;8.11;100.00
71768;BME280;59604;52.138;5.446;2022-12-24T05:12:33;101007.09;;;8.12;100.00
71768;BME280;59604;52.138;5.446;2022-12-24T05:14:59;101002.66;;;8.13;100.00
71768;BME280;59604;52.138;5.446;2022-12-24T05:17:26;100993.81;;;8.14;100.00
71768;BME280;59604;52.138;5.446;2022-12-24T05:19:52;100992.63;;;8.16;100.00
71768;BME280;59604;52.138;5.446;2022-12-24T05:22:19;100994.44;;;8.16;100.00
71768;BME280;59604;52.138;5.446;2022-12-24T05:25:04;100992.63;;;8.16;100.00
71768;BME280;59604;52.138;5.446;2022-12-24T05:27:49;101006.75;;;8.15;100.00
71768;BME280;59604;52.138;5.446;2022-12-24T05:30:16;101004.94;;;8.16;100.00
71768;BME280;59604;52.138;5.446;2022-12-24T05:32:43;101006.75;;;8.15;100.00
71768;BME280;59604;52.138;5.446;2022-12-24T05:35:10;101011.00;;;8.16;100.00
71768;BME280;59604;52.138;5.446;2022-12-24T05:37:36;101016.91;;;8.18;100.00
71768;BME280;59604;52.138;5.446;2022-12-24T05:40:03;101014.13;;;8.20;100.00
71768;BME280;59604;52.138;5.446;2022-12-24T05:42:30;101018.38;;;8.21;100.00
71768;BME280;59604;52.138;5.446;2022-12-24T05:44:56;101025.28;;;8.22;100.00
71768;BME280;59604;52.138;5.446;2022-12-24T05:47:23;101021.47;;;8.24;100.00
71768;BME280;59604;52.138;5.446;2022-12-24T05:49:49;101012.63;;;8.26;100.00
71768;BME280;59604;52.138;5.446;2022-12-24T05:52:16;101014.44;;;8.25;100.00
71768;BME280;59604;52.138;5.446;2022-12-24T05:54:42;101018.69;;;8.26;100.00
71768;BME280;59604;52.138;5.446;2022-12-24T05:57:09;101026.06;;;8.31;100.00
71768;BME280;59604;52.138;5.446;2022-12-24T05:59:35;101018.03;;;8.32;100.00
71768;BME280;59604;52.138;5.446;2022-12-24T06:02:02;101022.28;;;8.33;100.00
71768;BME280;59604;52.138;5.446;2022-12-24T06:04:29;101026.41;;;8.36;100.00
71768;BME280;59604;52.138;5.446;2022-12-24T06:06:55;101031.66;;;8.36;100.00
71768;BME280;59604;52.138;5.446;2022-12-24T06:09:22;101035.09;;;8.36;100.00
71768;BME280;59604;52.138;5.446;2022-12-24T06:11:48;101032.47;;;8.36;100.00
71768;BME280;59604;52.138;5.446;2022-12-24T06:14:17;101024.72;;;8.35;100.00
71768;BME280;59604;52.138;5.446;2022-12-24T06:16:44;101026.72;;;8.33;100.00
71768;BME280;59604;52.138;5.446;2022-12-24T06:19:10;101042.81;;;8.30;100.00
71768;BME280;59604;52.138;5.446;2022-12-24T06:21:37;101047.25;;;8.29;100.00
71768;BME280;59604;52.138;5.446;2022-12-24T06:24:04;101042.81;;;8.30;100.00
71768;BME280;59604;52.138;5.446;2022-12-24T06:26:30;101049.34;;;8.34;100.00
71768;BME280;59604;52.138;5.446;2022-12-24T06:28:57;101052.50;;;8.37;100.00
71768;BME280;59604;52.138;5.446;2022-12-24T06:31:23;101046.25;;;8.38;100.00
71768;BME280;59604;52.138;5.446;2022-12-24T06:33:51;101055.94;;;8.38;100.00
71768;BME280;59604;52.138;5.446;2022-12-24T06:36:20;101048.22;;;8.36;100.00
71768;BME280;59604;52.138;5.446;2022-12-24T06:38:48;101056.09;;;8.36;100.00
71768;BME280;59604;52.138;5.446;2022-12-24T06:41:15;101051.66;;;8.37;100.00
71768;BME280;59604;52.138;5.446;2022-12-24T06:43:47;101050.50;;;8.39;100.00
71768;BME280;59604;52.138;5.446;2022-12-24T06:46:15;101064.09;;;8.43;100.00
71768;BME280;59604;52.138;5.446;2022-12-24T06:48:43;101069.22;;;8.44;100.00
71768;BME280;59604;52.138;5.446;2022-12-24T06:51:11;101068.41;;;8.44;100.00
71768;BME280;59604;52.138;5.446;2022-12-24T06:53:38;101070.03;;;8.45;100.00
71768;BME280;59604;52.138;5.446;2022-12-24T06:56:07;101073.31;;;8.47;100.00
71768;BME280;59604;52.138;5.446;2022-12-24T06:58:34;101071.66;;;8.46;100.00
71768;BME280;59604;52.138;5.446;2022-12-24T07:01:05;101074.28;;;8.46;100.00
71768;BME280;59604;52.138;5.446;2022-12-24T07:03:32;101075.09;;;8.46;100.00
71768;BME280;59604;52.138;5.446;2022-12-24T07:05:59;101069.84;;;8.46;100.00
71768;BME280;59604;52.138;5.446;2022-12-24T07:08:26;101067.41;;;8.45;100.00
71768;BME280;59604;52.138;5.446;2022-12-24T07:10:53;101080.53;;;8.45;100.00
71768;BME280;59604;52.138;5.446;2022-12-24T07:13:20;101089.53;;;8.42;100.00
71768;BME280;59604;52.138;5.446;2022-12-24T07:15:56;101083.66;;;8.40;100.00
71768;BME280;59604;52.138;5.446;2022-12-24T07:18:22;101091.34;;;8.42;100.00
71768;BME280;59604;52.138;5.446;2022-12-24T07:20:49;101086.28;;;8.40;100.00
71768;BME280;59604;52.138;5.446;2022-12-24T07:23:15;101086.63;;;8.37;100.00
71768;BME280;59604;52.138;5.446;2022-12-24T07:25:42;101081.50;;;8.36;100.00
71768;BME280;59604;52.138;5.446;2022-12-24T07:28:09;101088.72;;;8.34;100.00
71768;BME280;59604;52.138;5.446;2022-12-24T07:30:35;101105.78;;;8.30;100.00
71768;BME280;59604;52.138;5.446;2022-12-24T07:33:02;101115.63;;;8.28;100.00
71768;BME280;59604;52.138;5.446;2022-12-24T07:35:29;101118.09;;;8.29;100.00
71768;BME280;59604;52.138;5.446;2022-12-24T07:37:55;101119.53;;;8.32;100.00
71768;BME280;59604;52.138;5.446;2022-12-24T07:40:22;101125.97;;;8.37;100.00
71768;BME280;59604;52.138;5.446;2022-12-24T07:42:48;101138.59;;;8.42;100.00
71768;BME280;59604;52.138;5.446;2022-12-24T07:45:15;101151.72;;;8.42;100.00
71768;BME280;59604;52.138;5.446;2022-12-24T07:47:43;101161.09;;;8.44;100.00
71768;BME280;59604;52.138;5.446;2022-12-24T07:50:10;101148.59;;;8.46;100.00
71768;BME280;59604;52.138;5.446;2022-12-24T07:52:37;101157.97;;;8.49;100.00
71768;BME280;59604;52.138;5.446;2022-12-24T07:55:03;101158.63;;;8.51;100.00
71768;BME280;59604;52.138;5.446;2022-12-24T07:57:30;101164.50;;;8.53;100.00
71768;BME280;59604;52.138;5.446;2022-12-24T07:59:57;101178.44;;;8.54;100.00
71768;BME280;59604;52.138;5.446;2022-12-24T08:02:23;101180.13;;;8.55;100.00
71768;BME280;59604;52.138;5.446;2022-12-24T08:04:50;101193.06;;;8.56;100.00
71768;BME280;59604;52.138;5.446;2022-12-24T08:07:17;101200.75;;;8.58;100.00
71768;BME280;59604;52.138;5.446;2022-12-24T08:09:43;101187.31;;;8.61;100.00
71768;BME280;59604;52.138;5.446;2022-12-24T08:12:11;101203.06;;;8.61;100.00
71768;BME280;59604;52.138;5.446;2022-12-24T08:14:38;101198.81;;;8.60;100.00
71768;BME280;59604;52.138;5.446;2022-12-24T08:17:04;101206.69;;;8.60;100.00
71768;BME280;59604;52.138;5.446;2022-12-24T08:19:31;101205.06;;;8.59;100.00
71768;BME280;59604;52.138;5.446;2022-12-24T08:21:57;101208.31;;;8.61;100.00
71768;BME280;59604;52.138;5.446;2022-12-24T08:24:24;101211.94;;;8.60;100.00
71768;BME280;59604;52.138;5.446;2022-12-24T08:26:51;101223.09;;;8.62;100.00
71768;BME280;59604;52.138;5.446;2022-12-24T08:29:17;101223.94;;;8.62;100.00
71768;BME280;59604;52.138;5.446;2022-12-24T08:31:44;101217.00;;;8.61;100.00
71768;BME280;59604;52.138;5.446;2022-12-24T08:34:10;101220.47;;;8.62;100.00
71768;BME280;59604;52.138;5.446;2022-12-24T08:36:37;101223.41;;;8.67;100.00
71768;BME280;59604;52.138;5.446;2022-12-24T08:39:04;101216.53;;;8.74;100.00
71768;BME280;59604;52.138;5.446;2022-12-24T08:41:31;101225.53;;;8.80;100.00
71768;BME280;59604;52.138;5.446;2022-12-24T08:43:58;101230.31;;;8.84;100.00
71768;BME280;59604;52.138;5.446;2022-12-24T08:46:24;101231.94;;;8.85;100.00
71768;BME280;59604;52.138;5.446;2022-12-24T08:48:51;101243.09;;;8.87;100.00
71768;BME280;59604;52.138;5.446;2022-12-24T08:51:18;101251.00;;;8.87;100.00
71768;BME280;59604;52.138;5.446;2022-12-24T08:53:45;101246.56;;;8.88;100.00
71768;BME280;59604;52.138;5.446;2022-12-24T08:56:12;101249.00;;;8.89;100.00
71768;BME280;59604;52.138;5.446;2022-12-24T08:58:39;101256.06;;;8.89;100.00
71768;BME280;59604;52.138;5.446;2022-12-24T09:01:14;101257.53;;;8.91;100.00
71768;BME280;59604;52.138;5.446;2022-12-24T09:03:41;101262.44;;;8.94;100.00
71768;BME280;59604;52.138;5.446;2022-12-24T09:06:08;101266.72;;;8.95;100.00
71768;BME280;59604;52.138;5.446;2022-12-24T09:08:35;101266.22;;;9.00;100.00
71768;BME280;59604;52.138;5.446;2022-12-24T09:11:07;101268.34;;;9.05;100.00
71768;BME280;59604;52.138;5.446;2022-12-24T09:13:34;101274.09;;;9.08;100.00
71768;BME280;59604;52.138;5.446;2022-12-24T09:16:01;101285.41;;;9.09;100.00
71768;BME280;59604;52.138;5.446;2022-12-24T09:18:28;101287.91;;;9.10;100.00
71768;BME280;59604;52.138;5.446;2022-12-24T09:21:02;101284.44;;;9.10;100.00
71768;BME280;59604;52.138;5.446;2022-12-24T09:23:29;101286.56;;;9.14;100.00
71768;BME280;59604;52.138;5.446;2022-12-24T09:25:56;101291.81;;;9.14;100.00
71768;BME280;59604;52.138;5.446;2022-12-24T09:28:23;101300.19;;;9.18;100.00
71768;BME280;59604;52.138;5.446;2022-12-24T09:30:58;101309.56;;;9.21;100.00
71768;BME280;59604;52.138;5.446;2022-12-24T09:33:26;101309.38;;;9.22;100.00
71768;BME280;59604;52.138;5.446;2022-12-24T09:35:54;101311.69;;;9.25;100.00
71768;BME280;59604;52.138;5.446;2022-12-24T09:38:21;101310.34;;;9.29;100.00
71768;BME280;59604;52.138;5.446;2022-12-24T09:40:48;101318.72;;;9.33;100.00
71768;BME280;59604;52.138;5.446;2022-12-24T09:43:18;101326.59;;;9.41;100.00
71768;BME280;59604;52.138;5.446;2022-12-24T09:48:29;101342.69;;;9.46;100.00
71768;BME280;59604;52.138;5.446;2022-12-24T09:51:09;101336.94;;;9.42;100.00
71768;BME280;59604;52.138;5.446;2022-12-24T09:53:42;101334.47;;;9.41;100.00
71768;BME280;59604;52.138;5.446;2022-12-24T09:56:19;101336.63;;;9.37;100.00
71768;BME280;59604;52.138;5.446;2022-12-24T09:58:49;101327.44;;;9.33;100.00
71768;BME280;59604;52.138;5.446;2022-12-24T10:01:19;101332.22;;;9.30;100.00
71768;BME280;59604;52.138;5.446;2022-12-24T10:03:46;101332.88;;;9.32;100.00
71768;BME280;59604;52.138;5.446;2022-12-24T10:06:28;101334.31;;;9.42;100.00
71768;BME280;59604;52.138;5.446;2022-12-24T10:09:29;101345.66;;;9.43;100.00
71768;BME280;59604;52.138;5.446;2022-12-24T10:15:23;101342.69;;;9.38;100.00
71768;BME280;59604;52.138;5.446;2022-12-24T10:23:27;101356.47;;;9.56;100.00
71768;BME280;59604;52.138;5.446;2022-12-24T10:34:35;101341.00;;;9.70;100.00
71768;BME280;59604;52.138;5.446;2022-12-24T10:37:05;101347.72;;;9.72;100.00
71768;BME280;59604;52.138;5.446;2022-12-24T10:39:32;101343.09;;;9.74;100.00
71768;BME280;59604;52.138;5.446;2022-12-24T10:41:59;101352.16;;;9.80;100.00
71768;BME280;59604;52.138;5.446;2022-12-24T10:44:29;101345.22;;;9.87;100.00
71768;BME280;59604;52.138;5.446;2022-12-24T10:46:57;101349.44;;;9.96;100.00
71768;BME280;59604;52.138;5.446;2022-12-24T10:49:32;101349.41;;;10.04;100.00
71768;BME280;59604;52.138;5.446;2022-12-24T10:52:04;101357.44;;;10.11;100.00
71768;BME280;59604;52.138;5.446;2022-12-24T10:54:32;101350.06;;;10.06;100.00
71768;BME280;59604;52.138;5.446;2022-12-24T10:57:05;101348.25;;;10.07;100.00
71768;BME280;59604;52.138;5.446;2022-12-24T10:59:54;101358.78;;;10.07;100.00
71768;BME280;59604;52.138;5.446;2022-12-24T11:02:34;101369.63;;;10.04;100.00
71768;BME280;59604;52.138;5.446;2022-12-24T11:05:04;101366.53;;;10.00;100.00
71768;BME280;59604;52.138;5.446;2022-12-24T11:07:32;101366.53;;;10.00;100.00
71768;BME280;59604;52.138;5.446;2022-12-24T11:10:05;101368.63;;;10.05;100.00
71768;BME280;59604;52.138;5.446;2022-12-24T11:12:46;101369.28;;;10.07;100.00
71768;BME280;59604;52.138;5.446;2022-12-24T11:15:34;101360.91;;;10.03;100.00
71768;BME280;59604;52.138;5.446;2022-12-24T11:18:11;101371.44;;;10.03;100.00
71768;BME280;59604;52.138;5.446;2022-12-24T11:20:39;101363.06;;;10.00;100.00
71768;BME280;59604;52.138;5.446;2022-12-24T11:23:12;101360.63;;;9.98;100.00
71768;BME280;59604;52.138;5.446;2022-12-24T11:25:46;101362.25;;;9.99;100.00
71768;BME280;59604;52.138;5.446;2022-12-24T11:28:21;101359.91;;;10.04;100.00
71768;BME280;59604;52.138;5.446;2022-12-24T11:30:57;101360.59;;;10.06;100.00
71768;BME280;59604;52.138;5.446;2022-12-24T11:33:24;101364.38;;;10.04;100.00
71768;BME280;59604;52.138;5.446;2022-12-24T11:35:55;101366.00;;;10.05;100.00
71768;BME280;59604;52.138;5.446;2022-12-24T11:38:25;101371.97;;;9.99;100.00
71768;BME280;59604;52.138;5.446;2022-12-24T11:41:11;101369.19;;;9.92;100.00
71768;BME280;59604;52.138;5.446;2022-12-24T11:43:43;101372.63;;;9.92;100.00
71768;BME280;59604;52.138;5.446;2022-12-24T11:46:16;101379.91;;;9.90;100.00
71768;BME280;59604;52.138;5.446;2022-12-24T11:48:43;101381.88;;;9.88;100.00
71768;BME280;59604;52.138;5.446;2022-12-24T11:51:25;101383.69;;;9.88;100.00
71768;BME280;59604;52.138;5.446;2022-12-24T11:54:03;101386.94;;;9.90;100.00
71768;BME280;59604;52.138;5.446;2022-12-24T11:56:43;101383.97;;;9.93;100.00
71768;BME280;59604;52.138;5.446;2022-12-24T11:59:18;101397.81;;;9.95;100.00
71768;BME280;59604;52.138;5.446;2022-12-24T12:01:53;101391.34;;;9.98;100.00
71768;BME280;59604;52.138;5.446;2022-12-24T12:04:29;101392.03;;;10.00;99.82
71768;BME280;59604;52.138;5.446;2022-12-24T12:06:58;101397.44;;;10.06;99.36
71768;BME280;59604;52.138;5.446;2022-12-24T12:09:30;101401.03;;;10.13;98.85
71768;BME280;59604;52.138;5.446;2022-12-24T12:12:04;101401.31;;;10.19;98.84
71768;BME280;59604;52.138;5.446;2022-12-24T12:14:37;101398.34;;;10.22;98.28
71768;BME280;59604;52.138;5.446;2022-12-24T12:19:55;101403.13;;;10.26;96.90
71768;BME280;59604;52.138;5.446;2022-12-24T12:22:32;101409.22;;;10.27;95.85
71768;BME280;59604;52.138;5.446;2022-12-24T12:25:01;101412.03;;;10.25;94.96
71768;BME280;59604;52.138;5.446;2022-12-24T12:27:42;101410.50;;;10.23;95.66
71768;BME280;59604;52.138;5.446;2022-12-24T12:30:15;101417.94;;;10.19;94.61
71768;BME280;59604;52.138;5.446;2022-12-24T12:33:19;101430.47;;;10.17;95.10
71768;BME280;59604;52.138;5.446;2022-12-24T12:35:49;101413.84;;;10.16;94.89
71768;BME280;59604;52.138;5.446;2022-12-24T12:38:20;101422.91;;;10.14;94.70
71768;BME280;59604;52.138;5.446;2022-12-24T12:44:02;101416.34;;;10.10;93.75
71768;BME280;59604;52.138;5.446;2022-12-24T12:52:40;101437.19;;;10.20;93.64
71768;BME280;59604;52.138;5.446;2022-12-24T12:58:08;101444.09;;;10.21;94.18
71768;BME280;59604;52.138;5.446;2022-12-24T13:00:40;101448.56;;;10.20;93.54
71768;BME280;59604;52.138;5.446;2022-12-24T13:08:50;101445.44;;;10.16;93.69
71768;BME280;59604;52.138;5.446;2022-12-24T13:22:57;101450.56;;;10.10;93.18
71768;BME280;59604;52.138;5.446;2022-12-24T13:25:36;101444.78;;;10.14;93.49
71768;BME280;59604;52.138;5.446;2022-12-24T13:31:21;101459.25;;;10.19;93.58
71768;BME280;59604;52.138;5.446;2022-12-24T13:33:51;101465.66;;;10.24;93.72
71768;BME280;59604;52.138;5.446;2022-12-24T13:36:19;101473.06;;;10.29;93.52
71768;BME280;59604;52.138;5.446;2022-12-24T13:38:50;101470.41;;;10.37;93.98
71768;BME280;59604;52.138;5.446;2022-12-24T13:47:00;101490.47;;;10.46;92.68
71768;BME280;59604;52.138;5.446;2022-12-24T13:54:34;101491.09;;;10.48;91.37
71768;BME280;59604;52.138;5.446;2022-12-24T13:59:57;101502.31;;;10.34;92.70
71768;BME280;59604;52.138;5.446;2022-12-24T14:02:25;101497.41;;;10.31;92.38
71768;BME280;59604;52.138;5.446;2022-12-24T14:04:59;101503.03;;;10.28;92.00
71768;BME280;59604;52.138;5.446;2022-12-24T14:07:26;101501.03;;;10.22;91.60
71768;BME280;59604;52.138;5.446;2022-12-24T14:09:53;101516.34;;;10.18;92.29
71768;BME280;59604;52.138;5.446;2022-12-24T14:12:46;101515.66;;;10.16;93.03
71768;BME280;59604;52.138;5.446;2022-12-24T14:18:22;101515.84;;;10.14;93.33
71768;BME280;59604;52.138;5.446;2022-12-24T14:20:52;101524.91;;;10.12;93.29
71768;BME280;59604;52.138;5.446;2022-12-24T14:25:56;101528.84;;;10.08;93.46
71768;BME280;59604;52.138;5.446;2022-12-24T14:28:30;101522.78;;;10.07;93.70
71768;BME280;59604;52.138;5.446;2022-12-24T14:31:03;101519.84;;;10.02;94.14
71768;BME280;59604;52.138;5.446;2022-12-24T14:33:31;101527.88;;;10.01;94.31
71768;BME280;59604;52.138;5.446;2022-12-24T14:35:59;101521.81;;;10.00;94.29
71768;BME280;59604;52.138;5.446;2022-12-24T14:38:28;101527.06;;;10.00;94.47